createdAt,value
2017-11-18T00:00:51.400Z,85.66
2017-11-18T00:01:56.190Z,85.33
2017-11-18T00:03:00.034Z,84.79
2017-11-18T00:04:03.772Z,85.59
2017-11-18T00:05:07.593Z,85.75
2017-11-18T00:06:11.588Z,85.50
2017-11-18T00:07:15.333Z,86.09
2017-11-18T00:08:19.120Z,86.01
2017-11-18T00:09:22.858Z,86.78
2017-11-18T00:10:26.568Z,87.23
2017-11-18T00:11:31.284Z,87.13
2017-11-18T00:12:35.840Z,86.98
2017-11-18T00:13:39.598Z,86.60
2017-11-18T00:14:43.346Z,85.93
2017-11-18T00:15:47.072Z,85.40
2017-11-18T00:16:50.834Z,85.02
2017-11-18T00:17:54.534Z,84.50
2017-11-18T00:18:58.581Z,83.96
2017-11-18T00:20:02.748Z,83.74
2017-11-18T00:21:06.492Z,83.84
2017-11-18T00:22:10.283Z,84.14
2017-11-18T00:23:14.021Z,84.33
2017-11-18T00:24:17.803Z,84.35
2017-11-18T00:25:22.054Z,84.04
2017-11-18T00:26:25.791Z,83.93
2017-11-18T00:27:29.504Z,83.86
2017-11-18T00:28:33.334Z,84.13
2017-11-18T00:29:37.221Z,84.23
2017-11-18T00:30:41.088Z,85.12
2017-11-18T00:31:45.178Z,85.67
2017-11-18T00:32:49.004Z,85.62
2017-11-18T00:33:52.845Z,85.21
2017-11-18T00:34:56.652Z,84.81
2017-11-18T00:36:00.580Z,85.26
2017-11-18T00:37:04.445Z,85.40
2017-11-18T00:38:08.657Z,85.65
2017-11-18T00:39:12.524Z,85.62
2017-11-18T00:40:16.353Z,85.70
2017-11-18T00:41:20.249Z,86.00
2017-11-18T00:42:24.113Z,85.93
2017-11-18T00:43:27.913Z,85.86
2017-11-18T00:44:31.996Z,85.44
2017-11-18T00:45:35.697Z,85.84
2017-11-18T00:46:39.429Z,86.42
2017-11-18T00:47:43.171Z,86.35
2017-11-18T00:48:46.904Z,86.20
2017-11-18T00:49:50.959Z,85.78
2017-11-18T00:50:54.784Z,85.20
2017-11-18T00:51:58.519Z,84.84
2017-11-18T00:53:02.257Z,84.56
2017-11-18T00:54:05.963Z,84.56
2017-11-18T00:55:09.636Z,85.03
2017-11-18T00:56:13.628Z,85.34
2017-11-18T00:57:17.312Z,85.24
2017-11-18T00:58:21.036Z,85.06
2017-11-18T00:59:24.764Z,84.54
2017-11-18T01:00:28.501Z,83.55
2017-11-18T01:01:32.269Z,83.79
2017-11-18T01:02:36.250Z,83.39
2017-11-18T01:03:39.956Z,83.66
2017-11-18T01:04:43.653Z,83.64
2017-11-18T01:05:47.360Z,83.44
2017-11-18T01:06:51.073Z,84.12
2017-11-18T01:07:54.732Z,84.12
2017-11-18T01:08:58.739Z,84.19
2017-11-18T01:10:03.024Z,84.44
2017-11-18T01:11:07.750Z,84.60
2017-11-18T01:12:11.550Z,84.29
2017-11-18T01:13:15.253Z,84.02
2017-11-18T01:14:18.996Z,84.27
2017-11-18T01:15:23.037Z,84.45
2017-11-18T01:16:26.774Z,84.67
2017-11-18T01:17:30.487Z,84.43
2017-11-18T01:18:34.223Z,84.06
2017-11-18T01:19:38.380Z,84.02
2017-11-18T01:20:42.196Z,83.95
2017-11-18T01:21:46.209Z,83.80
2017-11-18T01:22:49.977Z,83.33
2017-11-18T01:23:53.770Z,82.82
2017-11-18T01:24:57.472Z,83.83
2017-11-18T01:26:01.204Z,83.94
2017-11-18T01:27:05.030Z,83.92
2017-11-18T01:28:10.039Z,83.67
2017-11-18T01:29:13.785Z,83.41
2017-11-18T01:30:17.593Z,83.24
2017-11-18T01:31:21.311Z,83.94
2017-11-18T01:32:25.194Z,83.97
2017-11-18T01:33:28.801Z,84.47
2017-11-18T01:34:32.653Z,85.06
2017-11-18T01:35:36.229Z,85.17
2017-11-18T01:36:40.028Z,85.41
2017-11-18T01:37:43.752Z,85.60
2017-11-18T01:38:47.594Z,85.61
2017-11-18T01:39:51.241Z,85.12
2017-11-18T01:40:55.169Z,85.12
2017-11-18T01:41:58.936Z,84.99
2017-11-18T01:43:03.640Z,84.73
2017-11-18T01:44:07.421Z,84.30
2017-11-18T01:45:11.238Z,84.25
2017-11-18T01:46:15.555Z,85.27
2017-11-18T01:47:19.677Z,85.57
2017-11-18T01:48:23.461Z,85.65
2017-11-18T01:49:27.235Z,85.81
2017-11-18T01:50:30.949Z,85.84
2017-11-18T01:51:34.654Z,85.17
2017-11-18T01:52:38.380Z,85.04
2017-11-18T01:53:42.409Z,84.61
2017-11-18T01:54:46.210Z,84.65
2017-11-18T01:55:50.323Z,85.79
2017-11-18T01:56:54.589Z,85.92
2017-11-18T01:57:58.301Z,85.41
2017-11-18T01:59:02.545Z,85.20
2017-11-18T02:00:06.830Z,85.34
2017-11-18T02:16:38.942Z,95.20
2017-11-18T02:17:42.765Z,94.91
2017-11-18T02:18:46.637Z,94.48
2017-11-18T02:19:50.481Z,93.85
2017-11-18T02:20:54.285Z,92.84
2017-11-18T02:21:58.441Z,91.78
2017-11-18T02:23:02.385Z,91.23
2017-11-18T02:24:07.876Z,90.71
2017-11-18T02:25:11.688Z,89.46
2017-11-18T02:26:15.501Z,89.02
2017-11-18T02:27:19.422Z,88.51
2017-11-18T02:28:23.496Z,87.94
2017-11-18T02:29:27.310Z,87.22
2017-11-18T02:30:31.144Z,86.32
2017-11-18T02:31:35.053Z,85.53
2017-11-18T02:32:38.861Z,85.04
2017-11-18T02:33:42.653Z,84.64
2017-11-18T02:34:46.764Z,84.19
2017-11-18T02:35:51.214Z,83.56
2017-11-18T02:36:55.017Z,83.38
2017-11-18T02:37:59.106Z,83.24
2017-11-18T02:39:02.891Z,83.26
2017-11-18T02:40:06.714Z,83.95
2017-11-18T02:41:10.861Z,83.77
2017-11-18T02:42:14.686Z,84.13
2017-11-18T02:43:18.450Z,84.73
2017-11-18T02:44:22.269Z,84.60
2017-11-18T02:45:26.041Z,84.61
2017-11-18T02:46:29.884Z,84.62
2017-11-18T02:47:33.915Z,84.61
2017-11-18T02:48:37.644Z,84.83
2017-11-18T02:49:41.411Z,85.15
2017-11-18T02:50:45.240Z,85.24
2017-11-18T02:51:49.097Z,84.98
2017-11-18T02:52:53.745Z,84.61
2017-11-18T02:53:57.821Z,84.19
2017-11-18T02:55:01.692Z,83.96
2017-11-18T02:56:05.476Z,84.71
2017-11-18T02:57:09.254Z,85.02
2017-11-18T02:58:13.116Z,84.70
2017-11-18T02:59:16.890Z,84.32
2017-11-18T03:00:21.315Z,83.99
2017-11-18T03:01:25.070Z,83.61
2017-11-18T03:02:28.909Z,83.21
2017-11-18T03:03:32.725Z,83.52
2017-11-18T03:04:36.521Z,83.96
2017-11-18T03:05:40.299Z,83.85
2017-11-18T03:06:44.615Z,83.53
2017-11-18T03:07:48.393Z,83.07
2017-11-18T03:08:52.640Z,83.16
2017-11-18T03:09:56.402Z,83.44
2017-11-18T03:11:00.302Z,83.46
2017-11-18T03:12:04.073Z,83.40
2017-11-18T03:13:08.265Z,83.55
2017-11-18T03:14:12.039Z,84.30
2017-11-18T03:15:15.773Z,84.32
2017-11-18T03:16:19.542Z,83.94
2017-11-18T03:17:23.110Z,83.47
2017-11-18T03:18:26.776Z,83.35
2017-11-18T03:19:30.777Z,83.15
2017-11-18T03:20:34.468Z,83.22
2017-11-18T03:21:38.245Z,83.80
2017-11-18T03:22:41.926Z,84.26
2017-11-18T03:23:45.678Z,84.16
2017-11-18T03:24:49.347Z,83.82
2017-11-18T03:25:53.334Z,83.55
2017-11-18T03:26:57.041Z,83.72
2017-11-18T03:28:00.807Z,83.77
2017-11-18T03:29:04.539Z,83.65
2017-11-18T03:30:08.639Z,83.55
2017-11-18T03:31:12.436Z,83.74
2017-11-18T03:32:16.462Z,84.28
2017-11-18T03:33:20.136Z,84.67
2017-11-18T03:34:23.891Z,84.55
2017-11-18T03:35:27.580Z,84.45
2017-11-18T03:36:31.243Z,83.91
2017-11-18T03:37:34.937Z,83.45
2017-11-18T03:38:38.942Z,83.59
2017-11-18T03:39:42.716Z,83.96
2017-11-18T03:40:46.466Z,84.18
2017-11-18T03:41:50.154Z,84.76
2017-11-18T03:42:53.907Z,85.49
2017-11-18T03:43:57.878Z,85.55
2017-11-18T03:45:02.075Z,85.11
2017-11-18T03:46:05.748Z,85.12
2017-11-18T03:47:09.490Z,85.04
2017-11-18T03:48:13.365Z,84.71
2017-11-18T03:49:16.960Z,84.58
2017-11-18T03:50:20.722Z,84.67
2017-11-18T03:51:24.545Z,84.93
2017-11-18T03:52:28.142Z,84.70
2017-11-18T03:53:31.727Z,84.17
2017-11-18T03:54:35.378Z,83.67
2017-11-18T03:55:39.129Z,83.33
2017-11-18T03:56:42.894Z,83.00
2017-11-18T03:57:46.966Z,82.66
2017-11-18T03:58:50.811Z,82.45
2017-11-18T03:59:54.628Z,83.08
2017-11-18T04:00:58.524Z,83.44
2017-11-18T04:02:04.429Z,83.23
2017-11-18T04:03:08.572Z,82.75
2017-11-18T04:04:12.647Z,82.61
2017-11-18T04:05:16.470Z,82.65
2017-11-18T04:06:20.267Z,82.43
2017-11-18T04:07:24.055Z,82.56
2017-11-18T04:08:27.815Z,83.66
2017-11-18T04:09:31.588Z,83.49
2017-11-18T04:10:35.650Z,83.15
2017-11-18T04:11:39.467Z,82.87
2017-11-18T04:12:43.329Z,83.15
2017-11-18T04:13:47.123Z,82.93
2017-11-18T04:14:50.922Z,82.91
2017-11-18T04:15:54.804Z,82.49
2017-11-18T04:16:59.873Z,82.79
2017-11-18T04:18:03.676Z,83.48
2017-11-18T04:19:07.428Z,83.96
2017-11-18T04:20:11.139Z,83.74
2017-11-18T04:21:14.906Z,83.54
2017-11-18T04:22:18.588Z,84.12
2017-11-18T04:23:22.554Z,84.00
2017-11-18T04:24:26.249Z,83.77
2017-11-18T04:25:30.063Z,83.63
2017-11-18T04:26:33.889Z,83.16
2017-11-18T04:27:37.706Z,82.95
2017-11-18T04:28:41.541Z,82.79
2017-11-18T04:29:45.757Z,82.80
2017-11-18T04:30:49.527Z,82.59
2017-11-18T04:31:53.449Z,82.68
2017-11-18T04:32:57.221Z,83.02
2017-11-18T04:34:01.089Z,82.92
2017-11-18T04:35:05.575Z,83.25
2017-11-18T04:36:09.653Z,83.78
2017-11-18T04:37:13.490Z,84.01
2017-11-18T04:38:17.289Z,83.81
2017-11-18T04:39:21.176Z,83.69
2017-11-18T04:40:24.955Z,83.64
2017-11-18T04:41:28.753Z,83.82
2017-11-18T04:42:32.927Z,83.99
2017-11-18T04:43:36.767Z,84.05
2017-11-18T04:44:40.533Z,84.50
2017-11-18T04:45:44.345Z,84.62
2017-11-18T04:46:48.160Z,84.51
2017-11-18T04:47:52.015Z,84.45
2017-11-18T04:48:56.102Z,84.20
2017-11-18T04:49:59.891Z,83.89
2017-11-18T04:51:03.718Z,83.46
2017-11-18T04:52:07.779Z,83.12
2017-11-18T04:53:11.629Z,83.22
2017-11-18T04:54:15.513Z,83.62
2017-11-18T04:55:19.504Z,83.84
2017-11-18T04:56:23.188Z,83.60
2017-11-18T04:57:26.986Z,83.36
2017-11-18T04:58:30.666Z,83.24
2017-11-18T04:59:34.385Z,83.57
2017-11-18T05:15:39.203Z,94.17
2017-11-18T05:16:43.459Z,93.92
2017-11-18T05:17:47.171Z,93.71
2017-11-18T05:18:50.914Z,93.08
2017-11-18T05:19:54.635Z,92.33
2017-11-18T05:20:59.673Z,90.72
2017-11-18T05:22:03.386Z,90.50
2017-11-18T05:23:07.001Z,89.30
2017-11-18T05:24:10.574Z,88.77
2017-11-18T05:25:14.136Z,88.75
2017-11-18T05:26:17.677Z,88.44
2017-11-18T05:27:21.682Z,87.71
2017-11-18T05:28:25.395Z,87.45
2017-11-18T05:29:29.145Z,86.68
2017-11-18T05:30:32.939Z,85.60
2017-11-18T05:31:36.608Z,85.28
2017-11-18T05:32:40.332Z,84.87
2017-11-18T05:33:44.329Z,84.46
2017-11-18T05:34:48.054Z,83.82
2017-11-18T05:35:51.802Z,83.94
2017-11-18T05:36:55.558Z,84.76
2017-11-18T05:37:59.277Z,84.79
2017-11-18T05:39:03.016Z,84.51
2017-11-18T05:40:07.743Z,84.34
2017-11-18T05:41:11.670Z,84.52
2017-11-18T05:42:15.412Z,84.05
2017-11-18T05:43:19.183Z,83.82
2017-11-18T05:44:22.925Z,83.63
2017-11-18T05:45:26.975Z,83.60
2017-11-18T05:46:31.098Z,83.75
2017-11-18T05:47:34.795Z,83.67
2017-11-18T05:48:38.568Z,83.33
2017-11-18T05:49:42.366Z,83.19
2017-11-18T05:50:46.057Z,83.22
2017-11-18T05:51:49.734Z,82.82
2017-11-18T05:52:53.722Z,82.66
2017-11-18T05:53:57.547Z,82.70
2017-11-18T05:55:01.215Z,83.18
2017-11-18T05:56:05.049Z,82.99
2017-11-18T05:57:08.885Z,82.48
2017-11-18T05:58:12.587Z,82.22
2017-11-18T05:59:16.911Z,81.83
2017-11-18T06:00:20.706Z,81.74
2017-11-18T06:01:24.384Z,81.99
2017-11-18T06:02:28.135Z,82.72
2017-11-18T06:03:31.876Z,82.56
2017-11-18T06:04:35.596Z,82.45
2017-11-18T06:05:39.605Z,82.34
2017-11-18T06:06:43.316Z,82.29
2017-11-18T06:07:47.003Z,82.61
2017-11-18T06:08:50.800Z,82.92
2017-11-18T06:09:54.604Z,82.72
2017-11-18T06:10:58.429Z,82.42
2017-11-18T06:12:02.401Z,82.44
2017-11-18T06:13:06.174Z,82.38
2017-11-18T06:14:09.912Z,83.00
2017-11-18T06:15:13.763Z,83.25
2017-11-18T06:16:17.601Z,83.27
2017-11-18T06:17:21.387Z,83.19
2017-11-18T06:18:25.524Z,83.09
2017-11-18T06:19:29.356Z,82.88
2017-11-18T06:20:33.211Z,82.62
2017-11-18T06:21:37.071Z,82.68
2017-11-18T06:22:40.958Z,83.22
2017-11-18T06:23:44.876Z,83.28
2017-11-18T06:24:49.008Z,83.14
2017-11-18T06:25:52.833Z,82.82
2017-11-18T06:26:56.589Z,82.62
2017-11-18T06:28:00.416Z,82.98
2017-11-18T06:29:04.227Z,83.06
2017-11-18T06:30:08.607Z,82.98
2017-11-18T06:31:12.798Z,83.06
2017-11-18T06:32:16.732Z,82.90
2017-11-18T06:33:20.621Z,82.67
2017-11-18T06:34:24.393Z,82.45
2017-11-18T06:35:28.247Z,82.02
2017-11-18T06:36:32.102Z,81.99
2017-11-18T06:37:36.227Z,81.71
2017-11-18T06:38:40.177Z,81.53
2017-11-18T06:39:44.081Z,81.12
2017-11-18T06:40:47.888Z,81.05
2017-11-18T06:41:51.686Z,81.23
2017-11-18T06:42:55.518Z,81.47
2017-11-18T06:43:59.618Z,81.65
2017-11-18T06:45:03.545Z,81.79
2017-11-18T06:46:07.417Z,82.11
2017-11-18T06:47:11.225Z,82.31
2017-11-18T06:48:15.118Z,82.43
2017-11-18T06:49:19.155Z,82.54
2017-11-18T06:50:22.967Z,82.52
2017-11-18T06:51:26.737Z,82.56
2017-11-18T06:52:30.506Z,82.26
2017-11-18T06:53:34.290Z,81.95
2017-11-18T06:54:37.837Z,81.93
2017-11-18T06:55:41.738Z,81.95
2017-11-18T06:56:45.352Z,81.90
2017-11-18T06:57:49.017Z,81.84
2017-11-18T06:58:52.565Z,81.62
2017-11-18T06:59:56.295Z,81.61
2017-11-18T07:00:59.995Z,81.52
2017-11-18T07:02:04.253Z,81.17
2017-11-18T07:03:07.977Z,81.39
2017-11-18T07:04:11.678Z,81.61
2017-11-18T07:05:15.367Z,81.52
2017-11-18T07:07:38.387Z,81.65
2017-11-18T07:08:42.149Z,81.89
2017-11-18T07:09:45.970Z,82.10
2017-11-18T07:10:49.871Z,82.41
2017-11-18T07:11:53.608Z,82.63
2017-11-18T07:12:57.460Z,83.49
2017-11-18T07:14:01.594Z,83.89
2017-11-18T07:15:05.386Z,83.46
2017-11-18T07:16:09.184Z,84.27
2017-11-18T07:17:13.074Z,84.92
2017-11-18T07:18:17.153Z,85.49
2017-11-18T07:19:21.047Z,85.79
2017-11-18T07:20:25.341Z,86.12
2017-11-18T07:21:29.127Z,86.50
2017-11-18T07:22:32.893Z,86.62
2017-11-18T07:23:36.679Z,84.99
2017-11-18T07:24:40.768Z,84.54
2017-11-18T07:25:44.769Z,84.54
2017-11-18T07:26:49.075Z,83.61
2017-11-18T07:27:52.913Z,83.52
2017-11-18T07:28:56.881Z,82.97
2017-11-18T07:30:00.825Z,83.08
2017-11-18T07:31:05.906Z,83.59
2017-11-18T07:32:10.019Z,83.57
2017-11-18T07:33:14.557Z,83.71
2017-11-18T07:34:22.754Z,83.05
2017-11-18T07:35:26.815Z,83.83
2017-11-18T07:36:30.613Z,83.83
2017-11-18T07:37:34.500Z,84.22
2017-11-18T07:38:38.457Z,84.60
2017-11-18T07:39:42.686Z,84.98
2017-11-18T07:40:46.511Z,84.37
2017-11-18T07:41:50.388Z,83.63
2017-11-18T07:42:54.190Z,84.06
2017-11-18T07:43:58.010Z,84.20
2017-11-18T07:45:01.832Z,83.45
2017-11-18T07:46:06.006Z,82.67
2017-11-18T07:47:09.959Z,82.93
2017-11-18T07:48:13.737Z,82.80
2017-11-18T07:49:17.609Z,82.67
2017-11-18T07:50:21.564Z,82.41
2017-11-18T07:51:26.083Z,81.97
2017-11-18T07:52:30.378Z,80.48
2017-11-18T07:53:34.148Z,81.24
2017-11-18T07:54:37.945Z,82.26
2017-11-18T07:55:41.941Z,82.28
2017-11-18T07:56:46.375Z,81.86
2017-11-18T07:57:50.287Z,81.11
2017-11-18T07:58:54.539Z,82.71
2017-11-18T07:59:58.334Z,83.00
2017-11-18T08:01:02.664Z,82.83
2017-11-18T08:02:07.459Z,81.23
2017-11-18T08:03:11.480Z,82.05
2017-11-18T08:04:15.807Z,82.69
2017-11-18T08:05:20.240Z,82.62
2017-11-18T08:06:24.611Z,82.29
2017-11-18T08:07:28.497Z,82.18
2017-11-18T08:08:32.366Z,81.34
2017-11-18T08:09:37.729Z,82.46
2017-11-18T08:10:41.440Z,82.12
2017-11-18T08:11:46.312Z,81.78
2017-11-18T08:12:50.057Z,82.39
2017-11-18T08:13:53.878Z,82.51
2017-11-18T08:15:44.284Z,84.41
2017-11-18T08:16:48.088Z,82.44
2017-11-18T08:17:51.857Z,82.04
2017-11-18T08:18:55.637Z,84.76
2017-11-18T08:19:59.425Z,85.48
2017-11-18T08:21:03.276Z,84.65
2017-11-18T08:22:07.048Z,84.59
2017-11-18T08:23:11.187Z,84.52
2017-11-18T08:24:15.050Z,85.07
2017-11-18T08:25:18.917Z,85.53
2017-11-18T08:26:22.720Z,85.62
2017-11-18T08:27:26.513Z,85.37
2017-11-18T08:28:30.404Z,85.01
2017-11-18T08:29:35.506Z,84.79
2017-11-18T08:30:39.368Z,85.27
2017-11-18T08:31:43.051Z,87.00
2017-11-18T08:32:46.960Z,88.02
2017-11-18T08:33:50.868Z,87.05
2017-11-18T08:34:54.695Z,88.41
2017-11-18T08:36:03.061Z,87.74
2017-11-18T08:37:06.884Z,87.99
2017-11-18T08:38:10.691Z,87.54
2017-11-18T08:39:14.533Z,87.60
2017-11-18T08:40:18.321Z,86.85
2017-11-18T08:41:22.901Z,86.97
2017-11-18T08:42:27.196Z,87.22
2017-11-18T08:43:31.042Z,87.33
2017-11-18T08:44:34.858Z,88.36
2017-11-18T08:45:39.042Z,88.44
2017-11-18T08:46:43.831Z,87.31
2017-11-18T08:47:47.723Z,86.91
2017-11-18T08:48:51.918Z,87.82
2017-11-18T08:49:55.746Z,88.59
2017-11-18T08:50:59.516Z,88.15
2017-11-18T08:52:03.334Z,88.18
2017-11-18T08:53:07.184Z,87.48
2017-11-18T08:54:10.994Z,88.60
2017-11-18T08:55:15.121Z,87.97
2017-11-18T08:56:18.937Z,88.15
2017-11-18T08:57:22.835Z,88.62
2017-11-18T08:58:26.729Z,87.67
2017-11-18T08:59:30.543Z,86.77
2017-11-18T09:00:34.418Z,87.18
2017-11-18T09:01:38.674Z,85.72
2017-11-18T09:02:42.455Z,85.91
2017-11-18T09:03:46.282Z,85.62
2017-11-18T09:04:50.103Z,86.12
2017-11-18T09:05:53.945Z,86.62
2017-11-18T09:06:57.829Z,86.12
2017-11-18T09:08:02.119Z,85.30
2017-11-18T09:09:06.119Z,85.29
2017-11-18T09:10:09.943Z,85.48
2017-11-18T09:11:13.907Z,84.81
2017-11-18T09:12:17.804Z,85.28
2017-11-18T09:13:21.605Z,85.31
2017-11-18T09:14:25.937Z,84.84
2017-11-18T09:15:29.746Z,83.83
2017-11-18T09:16:34.156Z,83.07
2017-11-18T09:17:37.969Z,82.61
2017-11-18T09:18:41.825Z,81.98
2017-11-18T09:19:45.679Z,82.59
2017-11-18T09:20:50.165Z,82.66
2017-11-18T09:21:53.947Z,83.77
2017-11-18T09:22:57.800Z,83.44
2017-11-18T09:24:01.612Z,83.94
2017-11-18T09:25:05.425Z,83.50
2017-11-18T09:26:09.365Z,83.47
2017-11-18T09:27:13.662Z,85.42
2017-11-18T09:28:17.520Z,85.97
2017-11-18T09:29:21.339Z,85.24
2017-11-18T09:30:25.150Z,85.58
2017-11-18T09:31:29.001Z,86.01
2017-11-18T09:32:32.826Z,85.60
2017-11-18T09:33:37.018Z,84.54
2017-11-18T09:34:40.926Z,84.39
2017-11-18T09:35:44.829Z,83.61
2017-11-18T09:36:48.627Z,84.17
2017-11-18T09:37:52.441Z,84.52
2017-11-18T09:38:56.303Z,84.09
2017-11-18T09:40:00.376Z,84.52
2017-11-18T09:41:04.083Z,84.93
2017-11-18T09:42:07.832Z,84.62
2017-11-18T09:43:11.559Z,84.81
2017-11-18T09:44:15.309Z,84.03
2017-11-18T09:45:19.129Z,83.74
2017-11-18T09:46:23.017Z,85.25
2017-11-18T09:47:26.964Z,84.50
2017-11-18T09:48:30.861Z,83.60
2017-11-18T09:49:34.835Z,84.70
2017-11-18T09:50:39.000Z,83.49
2017-11-18T09:51:42.917Z,81.90
2017-11-18T09:52:46.748Z,82.16
2017-11-18T09:53:50.576Z,83.25
2017-11-18T09:54:54.440Z,84.36
2017-11-18T09:55:58.301Z,84.92
2017-11-18T09:57:03.688Z,84.98
2017-11-18T09:58:07.595Z,85.30
2017-11-18T09:59:11.435Z,84.39
2017-11-18T10:00:15.244Z,83.75
2017-11-18T10:01:19.063Z,83.38
2017-11-18T10:02:22.868Z,82.76
2017-11-18T10:03:28.029Z,82.41
2017-11-18T10:04:31.821Z,81.88
2017-11-18T10:05:36.987Z,81.88
2017-11-18T10:06:41.321Z,81.57
2017-11-18T10:07:45.330Z,82.71
2017-11-18T10:08:50.474Z,82.20
2017-11-18T10:09:54.620Z,81.60
2017-11-18T10:10:58.810Z,81.60
2017-11-18T10:12:14.019Z,81.43
2017-11-18T10:13:18.315Z,81.83
2017-11-18T10:14:23.656Z,82.93
2017-11-18T10:15:27.970Z,83.67
2017-11-18T10:16:32.553Z,83.61
2017-11-18T10:17:36.725Z,82.90
2017-11-18T10:18:40.971Z,82.62
2017-11-18T10:19:44.958Z,83.56
2017-11-18T10:20:49.247Z,83.18
2017-11-18T10:21:53.401Z,83.44
2017-11-18T10:22:58.007Z,83.85
2017-11-18T10:24:02.038Z,83.29
2017-11-18T10:25:06.223Z,83.62
2017-11-18T10:26:10.319Z,84.64
2017-11-18T10:27:14.392Z,84.13
2017-11-18T10:28:18.726Z,84.08
2017-11-18T10:29:23.126Z,83.84
2017-11-18T10:30:27.264Z,82.85
2017-11-18T10:31:32.288Z,83.84
2017-11-18T10:32:36.479Z,83.85
2017-11-18T10:33:40.651Z,83.08
2017-11-18T10:34:44.653Z,83.43
2017-11-18T10:35:49.037Z,83.25
2017-11-18T10:36:53.179Z,83.08
2017-11-18T10:37:57.166Z,83.23
2017-11-18T10:39:01.327Z,82.78
2017-11-18T10:40:05.399Z,83.00
2017-11-18T10:41:09.744Z,81.96
2017-11-18T10:42:14.486Z,80.75
2017-11-18T10:43:18.511Z,79.70
2017-11-18T10:44:22.526Z,79.06
2017-11-18T10:45:26.608Z,80.94
2017-11-18T10:46:30.824Z,80.99
2017-11-18T10:47:34.926Z,81.01
2017-11-18T10:48:39.280Z,81.75
2017-11-18T10:49:43.604Z,81.64
2017-11-18T10:50:47.654Z,80.88
2017-11-18T10:51:51.606Z,80.63
2017-11-18T10:52:55.839Z,80.15
2017-11-18T10:53:59.909Z,82.15
2017-11-18T10:55:04.295Z,82.08
2017-11-18T10:56:08.331Z,80.76
2017-11-18T10:57:12.331Z,80.83
2017-11-18T10:58:16.345Z,80.15
2017-11-18T11:15:17.596Z,86.51
2017-11-18T11:16:22.240Z,84.87
2017-11-18T11:17:26.450Z,83.94
2017-11-18T11:18:30.864Z,82.45
2017-11-18T11:19:35.229Z,82.56
2017-11-18T11:20:39.751Z,81.89
2017-11-18T11:21:44.047Z,81.38
2017-11-18T11:22:48.284Z,81.87
2017-11-18T11:23:52.466Z,82.55
2017-11-18T11:24:56.830Z,81.89
2017-11-18T11:26:01.241Z,81.78
2017-11-18T11:27:06.084Z,81.24
2017-11-18T11:28:10.174Z,82.60
2017-11-18T11:29:14.469Z,83.04
2017-11-18T11:30:18.696Z,84.14
2017-11-18T11:31:23.009Z,83.56
2017-11-18T11:32:27.210Z,83.02
2017-11-18T11:33:31.960Z,82.15
2017-11-18T11:34:36.081Z,81.61
2017-11-18T11:35:40.243Z,81.77
2017-11-18T11:36:44.569Z,81.01
2017-11-18T11:37:48.668Z,81.30
2017-11-18T11:38:53.903Z,81.40
2017-11-18T11:39:58.350Z,80.66
2017-11-18T11:41:02.844Z,81.38
2017-11-18T11:42:07.102Z,82.29
2017-11-18T11:43:11.810Z,83.49
2017-11-18T11:44:16.170Z,84.18
2017-11-18T11:45:20.491Z,84.18
2017-11-18T11:46:25.079Z,84.75
2017-11-18T11:47:29.549Z,86.32
2017-11-18T11:48:33.868Z,85.43
2017-11-18T11:49:38.221Z,84.10
2017-11-18T11:50:42.439Z,84.22
2017-11-18T11:51:46.641Z,84.71
2017-11-18T11:52:51.141Z,85.19
2017-11-18T11:53:55.304Z,84.32
2017-11-18T11:54:59.549Z,83.24
2017-11-18T11:56:03.740Z,84.71
2017-11-18T11:57:07.689Z,84.12
2017-11-18T11:58:11.650Z,83.62
2017-11-18T11:59:16.144Z,82.86
2017-11-18T12:00:20.365Z,82.57
2017-11-18T12:01:24.427Z,82.91
2017-11-18T12:02:28.608Z,83.37
2017-11-18T12:03:32.703Z,83.41
2017-11-18T12:04:36.862Z,83.58
2017-11-18T12:05:41.356Z,82.91
2017-11-18T12:06:45.609Z,83.54
2017-11-18T12:07:50.170Z,83.71
2017-11-18T12:08:54.544Z,84.27
2017-11-18T12:09:59.329Z,86.17
2017-11-18T12:11:03.451Z,85.74
2017-11-18T12:12:08.089Z,85.93
2017-11-18T12:13:12.221Z,85.59
2017-11-18T12:14:16.443Z,85.59
2017-11-18T12:15:20.477Z,86.09
2017-11-18T12:16:24.591Z,87.85
2017-11-18T12:17:29.070Z,88.40
2017-11-18T12:18:33.680Z,87.79
2017-11-18T12:19:38.071Z,86.27
2017-11-18T12:20:42.278Z,87.79
2017-11-18T12:21:46.739Z,87.04
2017-11-18T12:22:51.040Z,87.18
2017-11-18T12:23:55.160Z,86.84
2017-11-18T12:24:59.878Z,87.46
2017-11-18T12:26:04.190Z,87.57
2017-11-18T12:27:08.386Z,88.82
2017-11-18T12:28:12.550Z,88.20
2017-11-18T12:29:16.666Z,87.42
2017-11-18T12:30:20.875Z,87.17
2017-11-18T12:31:25.464Z,87.83
2017-11-18T12:32:31.138Z,89.98
2017-11-18T12:33:36.147Z,89.82
2017-11-18T12:34:41.466Z,88.94
2017-11-18T12:35:52.683Z,87.72
2017-11-18T12:37:05.787Z,88.18
2017-11-18T12:38:16.057Z,88.69
2017-11-18T12:39:22.360Z,88.39
2017-11-18T12:40:26.396Z,89.02
2017-11-18T12:41:31.172Z,89.33
2017-11-18T12:42:35.897Z,89.46
2017-11-18T12:43:40.611Z,88.96
2017-11-18T12:44:49.023Z,89.36
2017-11-18T12:45:53.254Z,89.31
2017-11-18T12:46:57.377Z,88.80
2017-11-18T12:48:01.538Z,87.98
2017-11-18T12:49:06.198Z,87.10
2017-11-18T12:50:10.368Z,87.53
2017-11-18T12:51:14.573Z,87.92
2017-11-18T12:52:18.697Z,87.89
2017-11-18T12:53:22.873Z,87.54
2017-11-18T12:54:26.940Z,86.05
2017-11-18T12:55:31.976Z,85.21
2017-11-18T12:56:36.115Z,85.49
2017-11-18T12:57:40.205Z,85.19
2017-11-18T12:58:44.240Z,85.10
2017-11-18T12:59:48.424Z,85.04
2017-11-18T13:00:52.601Z,85.24
2017-11-18T13:01:57.149Z,85.48
2017-11-18T13:03:01.216Z,85.40
2017-11-18T13:04:05.350Z,85.42
2017-11-18T13:05:09.443Z,85.66
2017-11-18T13:06:13.516Z,85.22
2017-11-18T13:07:17.668Z,85.20
2017-11-18T13:08:22.076Z,84.82
2017-11-18T13:09:26.314Z,84.13
2017-11-18T13:10:30.433Z,84.27
2017-11-18T13:11:34.467Z,84.70
2017-11-18T13:12:39.366Z,84.40
2017-11-18T13:13:43.503Z,84.62
2017-11-18T13:14:47.903Z,84.12
2017-11-18T13:15:51.981Z,83.02
2017-11-18T13:16:56.182Z,82.99
2017-11-18T13:18:00.312Z,83.50
2017-11-18T13:19:04.498Z,83.13
2017-11-18T13:20:09.209Z,82.79
2017-11-18T13:21:13.689Z,83.04
2017-11-18T13:22:17.908Z,82.12
2017-11-18T13:23:22.116Z,83.49
2017-11-18T13:24:26.317Z,84.87
2017-11-18T13:25:30.360Z,84.05
2017-11-18T13:26:34.576Z,83.23
2017-11-18T13:27:39.187Z,82.98
2017-11-18T13:28:43.365Z,81.45
2017-11-18T13:29:47.426Z,81.19
2017-11-18T13:30:51.562Z,80.16
2017-11-18T13:31:55.660Z,79.50
2017-11-18T13:32:59.721Z,80.90
2017-11-18T13:34:04.121Z,81.02
2017-11-18T13:35:08.497Z,80.32
2017-11-18T13:36:12.588Z,79.48
2017-11-18T13:37:16.641Z,79.22
2017-11-18T13:38:20.709Z,78.95
2017-11-18T13:39:24.996Z,78.96
2017-11-18T13:40:29.446Z,78.21
2017-11-18T13:41:33.499Z,78.90
2017-11-18T13:42:37.631Z,79.85
2017-11-18T13:43:41.744Z,79.94
2017-11-18T13:44:45.867Z,80.60
2017-11-18T13:45:49.829Z,81.17
2017-11-18T13:46:54.049Z,80.03
2017-11-18T13:47:58.139Z,79.31
2017-11-18T13:49:02.316Z,80.99
2017-11-18T13:50:06.553Z,81.33
2017-11-18T13:51:10.690Z,81.82
2017-11-18T13:52:14.750Z,81.42
2017-11-18T13:53:19.268Z,80.56
2017-11-18T13:54:23.712Z,80.38
2017-11-18T13:55:27.845Z,79.27
2017-11-18T13:56:31.994Z,78.46
2017-11-18T13:57:36.625Z,78.31
2017-11-18T13:58:40.873Z,78.38
2017-11-18T13:59:45.497Z,78.14
2017-11-18T14:00:49.656Z,78.76
2017-11-18T14:01:53.882Z,78.60
2017-11-18T14:02:59.035Z,79.29
2017-11-18T14:04:03.274Z,79.49
2017-11-18T14:05:07.387Z,78.68
2017-11-18T14:06:12.825Z,78.91
2017-11-18T14:07:16.902Z,78.23
2017-11-18T14:08:21.032Z,78.31
2017-11-18T14:09:25.252Z,78.73
2017-11-18T14:10:29.361Z,79.32
2017-11-18T14:11:33.527Z,78.45
2017-11-18T14:12:38.008Z,78.43
2017-11-18T14:13:42.976Z,79.51
2017-11-18T14:14:47.189Z,79.28
2017-11-18T14:15:51.535Z,78.76
2017-11-18T14:16:55.651Z,77.50
2017-11-18T14:17:59.835Z,78.57
2017-11-18T14:19:04.552Z,78.19
2017-11-18T14:20:08.712Z,77.70
2017-11-18T14:21:12.795Z,77.53
2017-11-18T14:22:16.549Z,79.70
2017-11-18T14:23:20.366Z,79.63
2017-11-18T14:24:24.095Z,79.95
2017-11-18T14:25:28.221Z,78.33
2017-11-18T14:26:32.218Z,77.68
2017-11-18T14:27:36.069Z,76.76
2017-11-18T14:28:39.941Z,76.67
2017-11-18T14:29:43.802Z,76.48
2017-11-18T14:30:47.707Z,76.36
2017-11-18T14:31:51.818Z,76.41
2017-11-18T14:32:55.722Z,77.56
2017-11-18T14:33:59.846Z,77.55